First Ferry Viii — VRS4306 — position and weather

sailwx.info

Track history (hours):
 
Tides and Currents Weather Stations Pressure Air Temp Water Temp Dewpoint Dewpoint Depression Visibility Wind Speed Wind Dir Waves Ship Positions

First Ferry Viii

Last reported at 2014-Dec-18 10:33 UTC. Time now 2014-Dec-18 11:31 UTC.
Position N 22°18' E 114°07'.

Length 36 m; draft 1.8 m.

Type: High speed craft. MMSI: 477995030.

Date/timePositionNaut miles runAvg speedWind from/ knotsBaromVisibWave heightAir tempDewpointWater temp
2014-Dec-18 10:33N 22°18' E 114°07'3 2.1
2014-Dec-18 09:05N 22°16' E 114°04'5 9.5
2014-Dec-18 08:33N 22°17' E 114°10'5 3.4
2014-Dec-18 07:04N 22°16' E 114°04'510.2
2014-Dec-18 06:33N 22°17' E 114°10'3 2.6
2014-Dec-18 05:33N 22°19' E 114°12'0 0.0
2014-Dec-18 04:33N 22°19' E 114°12'0 0.0
2014-Dec-18 03:33N 22°19' E 114°12'3 2.8
2014-Dec-18 02:32N 22°20' E 114°09'7 4.8
2014-Dec-18 01:05N 22°15' E 114°03'612.2
2014-Dec-18 00:34N 22°17' E 114°10'8 7.5
2014-Dec-17 23:33N 22°16' E 114°02'2 0.2
2014-Dec-17 16:07N 22°15' E 114°03'611.6
2014-Dec-17 15:34N 22°17' E 114°09'5 4.2
2014-Dec-17 14:19N 22°16' E 114°04'5 6.8
2014-Dec-17 13:33N 22°17' E 114°10'5 4.3
2014-Dec-17 12:20N 22°16' E 114°04'5 6.4
2014-Dec-17 11:34N 22°17' E 114°09'2 2.0
2014-Dec-17 10:33N 22°17' E 114°07'2 1.7
2014-Dec-17 09:04N 22°16' E 114°05'5 9.1
2014-Dec-17 08:33N 22°17' E 114°10'5 3.5
2014-Dec-17 07:04N 22°16' E 114°04'510.4
2014-Dec-17 06:33N 22°17' E 114°10'3 2.6
2014-Dec-17 05:33N 22°19' E 114°12'0 0.0
2014-Dec-17 04:33N 22°19' E 114°12'0 0.0
2014-Dec-17 03:33N 22°19' E 114°12'0 0.0
2014-Dec-17 02:33N 22°19' E 114°12'9 5.8
2014-Dec-17 01:03N 22°15' E 114°03'612.8
2014-Dec-17 00:34N 22°17' E 114°09'7 7.1
2014-Dec-16 23:33N 22°16' E 114°02'2 0.2
2014-Dec-16 16:05N 22°15' E 114°04'611.3
2014-Dec-16 15:34N 22°17' E 114°10'5 4.3
2014-Dec-16 14:20N 22°16' E 114°04'5 6.7
2014-Dec-16 13:33N 22°17' E 114°10'5 4.4
2014-Dec-16 12:20N 22°16' E 114°04'5 6.0
2014-Dec-16 11:34N 22°18' E 114°09'2 1.8
2014-Dec-16 10:33N 22°18' E 114°07'3 2.3
2014-Dec-16 09:06N 22°15' E 114°04'610.3
2014-Dec-16 08:33N 22°17' E 114°10'0 0.0
2014-Dec-16 06:33N 22°17' E 114°10'3 2.6
2014-Dec-16 05:33N 22°19' E 114°12'0 0.0
2014-Dec-16 04:33N 22°19' E 114°12'0 0.0
2014-Dec-16 03:32N 22°19' E 114°12'0 0.0
2014-Dec-16 02:33N 22°19' E 114°12'3 2.0
2014-Dec-16 01:10N 22°20' E 114°09'2 3.2
2014-Dec-16 00:31N 22°18' E 114°09'2 1.4
2014-Dec-15 23:19N 22°18' E 114°07'2 0.3
2014-Dec-15 15:33N 22°17' E 114°10'1 1.0
2014-Dec-15 14:08N 22°18' E 114°08'1 2.3
2014-Dec-15 13:33N 22°17' E 114°10'2 1.2
2014-Dec-15 12:09N 22°18' E 114°08'2 2.6
2014-Dec-15 11:34N 22°17' E 114°10'2 1.7
2014-Dec-15 10:30N 22°18' E 114°08'2 1.0
2014-Dec-15 08:33N 22°17' E 114°10'0 0.0
2014-Dec-15 06:33N 22°17' E 114°10'3 2.6
2014-Dec-15 05:33N 22°19' E 114°12'0 0.0
2014-Dec-15 04:27N 22°19' E 114°12'0 0.0
2014-Dec-15 03:21N 22°19' E 114°12'0 0.0
2014-Dec-15 02:05N 22°19' E 114°12'0 0.0
2014-Dec-15 01:29N 22°19' E 114°12'3 2.9
2014-Dec-15 00:33N 22°17' E 114°09'1 0.8
2014-Dec-14 23:17N 22°18' E 114°08'0 0.0
2014-Dec-14 16:03N 22°18' E 114°08'1 2.5
2014-Dec-14 15:32N 22°17' E 114°10'1 0.9
2014-Dec-14 14:09N 22°18' E 114°08'1 1.8
2014-Dec-14 13:32N 22°17' E 114°09'1 0.8
2014-Dec-14 12:09N 22°18' E 114°08'1 1.8
2014-Dec-14 11:32N 22°17' E 114°09'1 0.8
2014-Dec-14 10:08N 22°18' E 114°08'1 1.9
2014-Dec-14 09:26N 22°17' E 114°10'1 0.9
2014-Dec-14 08:07N 22°18' E 114°08'1 1.8
2014-Dec-14 07:32N 22°17' E 114°10'0 0.0
2014-Dec-14 05:32N 22°17' E 114°10'1 0.6
2014-Dec-14 03:33N 22°18' E 114°11'1 1.4
2014-Dec-14 02:33N 22°19' E 114°12'0 0.4
2014-Dec-14 01:33N 22°19' E 114°12'2 2.3
2014-Dec-14 00:31N 22°17' E 114°09'1 0.8
2014-Dec-13 23:07N 22°18' E 114°08'1 2.0
2014-Dec-13 22:33N 22°17' E 114°10'0 0.0
2014-Dec-13 15:32N 22°17' E 114°10'1 0.9
2014-Dec-13 14:08N 22°18' E 114°08'1 2.1
2014-Dec-13 13:33N 22°17' E 114°10'1 1.0
2014-Dec-13 12:08N 22°18' E 114°08'1 2.2
2014-Dec-13 11:32N 22°17' E 114°10'1 1.2
2014-Dec-13 10:30N 22°18' E 114°08'1 0.6
2014-Dec-13 08:18N 22°17' E 114°10'0 0.0
2014-Dec-13 06:33N 22°17' E 114°10'2 2.5
2014-Dec-13 05:34N 22°19' E 114°12'0 0.0
2014-Dec-13 04:33N 22°19' E 114°12'0 0.0
2014-Dec-13 03:33N 22°19' E 114°12'0 0.0
2014-Dec-13 02:27N 22°19' E 114°12'3 1.4
2014-Dec-13 00:33N 22°17' E 114°10'1 1.2
2014-Dec-12 23:20N 22°18' E 114°08'1 0.2
2014-Dec-12 15:31N 22°17' E 114°10'1 0.8
2014-Dec-12 14:07N 22°18' E 114°08'1 2.2
2014-Dec-12 13:32N 22°17' E 114°10'1 1.0
2014-Dec-12 12:10N 22°18' E 114°08'1 1.4
2014-Dec-12 11:33N 22°18' E 114°09'1 0.8
2014-Dec-12 10:31N 22°18' E 114°08'1 0.6
2014-Dec-12 08:19N 22°17' E 114°10'2 0.8
2014-Dec-12 06:23N 22°18' E 114°11'1 1.4
2014-Dec-12 05:33N 22°19' E 114°12'0 0.0
2014-Dec-12 04:34N 22°19' E 114°12'0 0.0
2014-Dec-12 03:31N 22°19' E 114°12'0 0.0
2014-Dec-12 02:31N 22°19' E 114°12'3 0.2
2014-Dec-11 15:31N 22°17' E 114°10'1 0.8
2014-Dec-11 14:08N 22°18' E 114°08'1 2.0
2014-Dec-11 13:31N 22°17' E 114°10'1 0.9
2014-Dec-11 12:08N 22°18' E 114°08'1 2.1
2014-Dec-11 11:34N 22°17' E 114°09'1 1.1
2014-Dec-11 10:29N 22°18' E 114°08'1 0.6
2014-Dec-11 08:18N 22°17' E 114°10'0 0.1
2014-Dec-11 06:22N 22°17' E 114°10'3 3.2
2014-Dec-11 05:34N 22°19' E 114°12'0 0.0
2014-Dec-11 04:33N 22°19' E 114°12'0 0.0
2014-Dec-11 03:33N 22°19' E 114°12'0 0.0
2014-Dec-11 02:33N 22°19' E 114°12'0 0.0
2014-Dec-11 01:33N 22°19' E 114°12'3 2.6
2014-Dec-11 00:34N 22°17' E 114°09'1 0.9
2014-Dec-10 23:18N 22°18' E 114°08'1 0.2
2014-Dec-10 15:31N 22°17' E 114°10'1 0.4
2014-Dec-10 12:09N 22°18' E 114°08'1 2.0
2014-Dec-10 11:33N 22°17' E 114°10'1 0.9
2014-Dec-10 10:27N 22°18' E 114°08'1 0.5
2014-Dec-10 08:17N 22°17' E 114°10'2 0.8
2014-Dec-10 06:17N 22°18' E 114°11'1 1.4
2014-Dec-10 05:33N 22°19' E 114°12'0 0.0
2014-Dec-10 04:33N 22°19' E 114°12'0 0.0
2014-Dec-10 03:33N 22°19' E 114°12'0 0.0
2014-Dec-10 02:33N 22°19' E 114°12'3 2.8
2014-Dec-10 01:33N 22°18' E 114°09'0 0.5
2014-Dec-10 00:34N 22°17' E 114°10'1 1.1
2014-Dec-09 23:18N 22°18' E 114°08'1 0.2
2014-Dec-09 15:31N 22°17' E 114°10'1 0.9
2014-Dec-09 14:08N 22°18' E 114°08'1 2.0
2014-Dec-09 13:32N 22°17' E 114°10'1 0.8
2014-Dec-09 12:08N 22°18' E 114°08'1 0.4
2014-Dec-09 09:19N 22°17' E 114°10'0 0.0
2014-Dec-09 07:19N 22°17' E 114°10'0 0.0
2014-Dec-09 05:27N 22°17' E 114°10'2 2.8
2014-Dec-09 04:33N 22°19' E 114°12'0 0.0
2014-Dec-09 03:33N 22°19' E 114°12'0 0.0
2014-Dec-09 02:29N 22°19' E 114°12'0 0.0
2014-Dec-09 01:33N 22°19' E 114°12'3 2.6
2014-Dec-09 00:34N 22°17' E 114°09'1 0.8
2014-Dec-08 23:17N 22°18' E 114°08'1 0.2
2014-Dec-08 15:31N 22°17' E 114°10'1 0.8
2014-Dec-08 14:08N 22°18' E 114°08'1 1.6
2014-Dec-08 13:31N 22°17' E 114°09'1 0.9
2014-Dec-08 12:09N 22°18' E 114°08'1 2.2
2014-Dec-08 11:31N 22°17' E 114°10'  
Track history (hours):
 
Tides and Currents Weather Stations Pressure Air Temp Water Temp Dewpoint Dewpoint Depression Visibility Wind Speed Wind Dir Waves Ship Positions

First Ferry Viii

Last reported at 2014-Dec-18 10:33 UTC. Time now 2014-Dec-18 11:31 UTC.
Position N 22°18' E 114°07'.

Length 36 m; draft 1.8 m.

Type: High speed craft. MMSI: 477995030.

Date/timePositionNaut miles runAvg speedWind from/ knotsBaromVisibWave heightAir tempDewpointWater temp
2014-Dec-18 10:33N 22°18' E 114°07'3 2.1
2014-Dec-18 09:05N 22°16' E 114°04'5 9.5
2014-Dec-18 08:33N 22°17' E 114°10'5 3.4
2014-Dec-18 07:04N 22°16' E 114°04'510.2
2014-Dec-18 06:33N 22°17' E 114°10'3 2.6
2014-Dec-18 05:33N 22°19' E 114°12'0 0.0
2014-Dec-18 04:33N 22°19' E 114°12'0 0.0
2014-Dec-18 03:33N 22°19' E 114°12'3 2.8
2014-Dec-18 02:32N 22°20' E 114°09'7 4.8
2014-Dec-18 01:05N 22°15' E 114°03'612.2
2014-Dec-18 00:34N 22°17' E 114°10'8 7.5
2014-Dec-17 23:33N 22°16' E 114°02'2 0.2
2014-Dec-17 16:07N 22°15' E 114°03'611.6
2014-Dec-17 15:34N 22°17' E 114°09'5 4.2
2014-Dec-17 14:19N 22°16' E 114°04'5 6.8
2014-Dec-17 13:33N 22°17' E 114°10'5 4.3
2014-Dec-17 12:20N 22°16' E 114°04'5 6.4
2014-Dec-17 11:34N 22°17' E 114°09'2 2.0
2014-Dec-17 10:33N 22°17' E 114°07'2 1.7
2014-Dec-17 09:04N 22°16' E 114°05'5 9.1
2014-Dec-17 08:33N 22°17' E 114°10'5 3.5
2014-Dec-17 07:04N 22°16' E 114°04'510.4
2014-Dec-17 06:33N 22°17' E 114°10'3 2.6
2014-Dec-17 05:33N 22°19' E 114°12'0 0.0
2014-Dec-17 04:33N 22°19' E 114°12'0 0.0
2014-Dec-17 03:33N 22°19' E 114°12'0 0.0
2014-Dec-17 02:33N 22°19' E 114°12'9 5.8
2014-Dec-17 01:03N 22°15' E 114°03'612.8
2014-Dec-17 00:34N 22°17' E 114°09'7 7.1
2014-Dec-16 23:33N 22°16' E 114°02'2 0.2
2014-Dec-16 16:05N 22°15' E 114°04'611.3
2014-Dec-16 15:34N 22°17' E 114°10'5 4.3
2014-Dec-16 14:20N 22°16' E 114°04'5 6.7
2014-Dec-16 13:33N 22°17' E 114°10'5 4.4
2014-Dec-16 12:20N 22°16' E 114°04'5 6.0
2014-Dec-16 11:34N 22°18' E 114°09'2 1.8
2014-Dec-16 10:33N 22°18' E 114°07'3 2.3
2014-Dec-16 09:06N 22°15' E 114°04'610.3
2014-Dec-16 08:33N 22°17' E 114°10'0 0.0
2014-Dec-16 06:33N 22°17' E 114°10'3 2.6
2014-Dec-16 05:33N 22°19' E 114°12'0 0.0
2014-Dec-16 04:33N 22°19' E 114°12'0 0.0
2014-Dec-16 03:32N 22°19' E 114°12'0 0.0
2014-Dec-16 02:33N 22°19' E 114°12'3 2.0
2014-Dec-16 01:10N 22°20' E 114°09'2 3.2
2014-Dec-16 00:31N 22°18' E 114°09'2 1.4
2014-Dec-15 23:19N 22°18' E 114°07'2 0.3
2014-Dec-15 15:33N 22°17' E 114°10'1 1.0
2014-Dec-15 14:08N 22°18' E 114°08'1 2.3
2014-Dec-15 13:33N 22°17' E 114°10'2 1.2
2014-Dec-15 12:09N 22°18' E 114°08'2 2.6
2014-Dec-15 11:34N 22°17' E 114°10'2 1.7
2014-Dec-15 10:30N 22°18' E 114°08'2 1.0
2014-Dec-15 08:33N 22°17' E 114°10'0 0.0
2014-Dec-15 06:33N 22°17' E 114°10'3 2.6
2014-Dec-15 05:33N 22°19' E 114°12'0 0.0
2014-Dec-15 04:27N 22°19' E 114°12'0 0.0
2014-Dec-15 03:21N 22°19' E 114°12'0 0.0
2014-Dec-15 02:05N 22°19' E 114°12'0 0.0
2014-Dec-15 01:29N 22°19' E 114°12'3 2.9
2014-Dec-15 00:33N 22°17' E 114°09'1 0.8
2014-Dec-14 23:17N 22°18' E 114°08'0 0.0
2014-Dec-14 16:03N 22°18' E 114°08'1 2.5
2014-Dec-14 15:32N 22°17' E 114°10'1 0.9
2014-Dec-14 14:09N 22°18' E 114°08'1 1.8
2014-Dec-14 13:32N 22°17' E 114°09'1 0.8
2014-Dec-14 12:09N 22°18' E 114°08'1 1.8
2014-Dec-14 11:32N 22°17' E 114°09'1 0.8
2014-Dec-14 10:08N 22°18' E 114°08'1 1.9
2014-Dec-14 09:26N 22°17' E 114°10'1 0.9
2014-Dec-14 08:07N 22°18' E 114°08'1 1.8
2014-Dec-14 07:32N 22°17' E 114°10'0 0.0
2014-Dec-14 05:32N 22°17' E 114°10'1 0.6
2014-Dec-14 03:33N 22°18' E 114°11'1 1.4
2014-Dec-14 02:33N 22°19' E 114°12'0 0.4
2014-Dec-14 01:33N 22°19' E 114°12'2 2.3
2014-Dec-14 00:31N 22°17' E 114°09'1 0.8
2014-Dec-13 23:07N 22°18' E 114°08'1 2.0
2014-Dec-13 22:33N 22°17' E 114°10'0 0.0
2014-Dec-13 15:32N 22°17' E 114°10'1 0.9
2014-Dec-13 14:08N 22°18' E 114°08'1 2.1
2014-Dec-13 13:33N 22°17' E 114°10'1 1.0
2014-Dec-13 12:08N 22°18' E 114°08'1 2.2
2014-Dec-13 11:32N 22°17' E 114°10'1 1.2
2014-Dec-13 10:30N 22°18' E 114°08'1 0.6
2014-Dec-13 08:18N 22°17' E 114°10'0 0.0
2014-Dec-13 06:33N 22°17' E 114°10'2 2.5
2014-Dec-13 05:34N 22°19' E 114°12'0 0.0
2014-Dec-13 04:33N 22°19' E 114°12'0 0.0
2014-Dec-13 03:33N 22°19' E 114°12'0 0.0
2014-Dec-13 02:27N 22°19' E 114°12'3 1.4
2014-Dec-13 00:33N 22°17' E 114°10'1 1.2
2014-Dec-12 23:20N 22°18' E 114°08'1 0.2
2014-Dec-12 15:31N 22°17' E 114°10'1 0.8
2014-Dec-12 14:07N 22°18' E 114°08'1 2.2
2014-Dec-12 13:32N 22°17' E 114°10'1 1.0
2014-Dec-12 12:10N 22°18' E 114°08'1 1.4
2014-Dec-12 11:33N 22°18' E 114°09'1 0.8
2014-Dec-12 10:31N 22°18' E 114°08'1 0.6
2014-Dec-12 08:19N 22°17' E 114°10'2 0.8
2014-Dec-12 06:23N 22°18' E 114°11'1 1.4
2014-Dec-12 05:33N 22°19' E 114°12'0 0.0
2014-Dec-12 04:34N 22°19' E 114°12'0 0.0
2014-Dec-12 03:31N 22°19' E 114°12'0 0.0
2014-Dec-12 02:31N 22°19' E 114°12'3 0.2
2014-Dec-11 15:31N 22°17' E 114°10'1 0.8
2014-Dec-11 14:08N 22°18' E 114°08'1 2.0
2014-Dec-11 13:31N 22°17' E 114°10'1 0.9
2014-Dec-11 12:08N 22°18' E 114°08'1 2.1
2014-Dec-11 11:34N 22°17' E 114°09'1 1.1
2014-Dec-11 10:29N 22°18' E 114°08'1 0.6
2014-Dec-11 08:18N 22°17' E 114°10'0 0.1
2014-Dec-11 06:22N 22°17' E 114°10'3 3.2
2014-Dec-11 05:34N 22°19' E 114°12'0 0.0
2014-Dec-11 04:33N 22°19' E 114°12'0 0.0
2014-Dec-11 03:33N 22°19' E 114°12'0 0.0
2014-Dec-11 02:33N 22°19' E 114°12'0 0.0
2014-Dec-11 01:33N 22°19' E 114°12'3 2.6
2014-Dec-11 00:34N 22°17' E 114°09'1 0.9
2014-Dec-10 23:18N 22°18' E 114°08'1 0.2
2014-Dec-10 15:31N 22°17' E 114°10'1 0.4
2014-Dec-10 12:09N 22°18' E 114°08'1 2.0
2014-Dec-10 11:33N 22°17' E 114°10'1 0.9
2014-Dec-10 10:27N 22°18' E 114°08'1 0.5
2014-Dec-10 08:17N 22°17' E 114°10'2 0.8
2014-Dec-10 06:17N 22°18' E 114°11'1 1.4
2014-Dec-10 05:33N 22°19' E 114°12'0 0.0
2014-Dec-10 04:33N 22°19' E 114°12'0 0.0
2014-Dec-10 03:33N 22°19' E 114°12'0 0.0
2014-Dec-10 02:33N 22°19' E 114°12'3 2.8
2014-Dec-10 01:33N 22°18' E 114°09'0 0.5
2014-Dec-10 00:34N 22°17' E 114°10'1 1.1
2014-Dec-09 23:18N 22°18' E 114°08'1 0.2
2014-Dec-09 15:31N 22°17' E 114°10'1 0.9
2014-Dec-09 14:08N 22°18' E 114°08'1 2.0
2014-Dec-09 13:32N 22°17' E 114°10'1 0.8
2014-Dec-09 12:08N 22°18' E 114°08'1 0.4
2014-Dec-09 09:19N 22°17' E 114°10'0 0.0
2014-Dec-09 07:19N 22°17' E 114°10'0 0.0
2014-Dec-09 05:27N 22°17' E 114°10'2 2.8
2014-Dec-09 04:33N 22°19' E 114°12'0 0.0
2014-Dec-09 03:33N 22°19' E 114°12'0 0.0
2014-Dec-09 02:29N 22°19' E 114°12'0 0.0
2014-Dec-09 01:33N 22°19' E 114°12'3 2.6
2014-Dec-09 00:34N 22°17' E 114°09'1 0.8
2014-Dec-08 23:17N 22°18' E 114°08'1 0.2
2014-Dec-08 15:31N 22°17' E 114°10'1 0.8
2014-Dec-08 14:08N 22°18' E 114°08'1 1.6
2014-Dec-08 13:31N 22°17' E 114°09'1 0.9
2014-Dec-08 12:09N 22°18' E 114°08'1 2.2
2014-Dec-08 11:31N 22°17' E 114°10'  

Dump ship's entire track history